avis per tempestes more information blitzortung!


avis per Pluja more information rain snow radar


Visita la nostra xarxa de llocs de meteo:

Template documentation
and downloads

And another site



Thunderstorms From: 18-09-2018 20:00 Until: 19-09-2018 10:59 warning for: Thunderstorms Level: Yellow info button
Rain From: 18-09-2018 20:00 Until: 19-09-2018 10:59 warning for: Rain Level: Yellow info button

Pagina Historial Weather Underground text

Diari Resum Juny 27, 2017 Unitats:  Mètric    Imperial   Tant
« Previous Dia
SegĂźent Dia »
Diari Setmana Mensual Anual Personalitzada
  Maxima: Minima: Media:
Temperatura: -17.8 °C -6.4 °C -3.6 °C
Punt de rosada: -17.8 °C -9.3 °C -8 °C
Humitat: Humidity % 47 % 62 %
Wind Speed: 0 km/h 0 km/h 10.5 km/h
RĂ fegues de vent: 0 km/h - -
Vent:- - SSE
Pression baro: 0 hPa 33890.5 hPa -
Precipitacions: 0 mm    
Historical Graphs
 
 
Dades de taula per Juny 27, 2017
Temps Temperatura Punt de rosada Pression baro Vent Wind Speed RĂ fegues de vent Humitat Rainfall Rate (Hourly)
-17.8 °C -17.8 °C 0 hPa Calm     Humidity % 0 mm
00:00 -6 °C -9.1 °C 34130.9 hPa NNE 2.6 km/h   71 % 0 mm
00:01 -4.2 °C -9.3 °C 34130.9 hPa West 9 km/h 9 km/h 57 % 0 mm
00:06 -4.2 °C -9.3 °C 34130.9 hPa WSW 9 km/h 9 km/h 57 % 0 mm
00:10 -6 °C -8.9 °C 34130.9 hPa Calm     72 % 0 mm
00:20 -6 °C -8.9 °C 34130.9 hPa NNW 2.6 km/h 5.1 km/h 72 % 0 mm
00:30 -6 °C -8.9 °C 34130.9 hPa Calm   2.6 km/h 72 % 0 mm
00:40 -6.1 °C -8.9 °C 34130.9 hPa Calm   2.6 km/h 73 % 0 mm
00:50 -6.2 °C -8.9 °C 34097 hPa Calm     73 % 0 mm
01:00 -6.2 °C -8.9 °C 34097 hPa Calm   2.6 km/h 73 % 0 mm
01:10 -6.2 °C -8.8 °C 34097 hPa Calm   2.6 km/h 74 % 0 mm
01:20 -6.2 °C -8.9 °C 34097 hPa NNE 5.1 km/h 5.1 km/h 73 % 0 mm
01:30 -6.2 °C -8.9 °C 34097 hPa NE 2.6 km/h 5.1 km/h 74 % 0 mm
01:40 -6.3 °C -8.9 °C 34097 hPa Calm   2.6 km/h 74 % 0 mm
01:50 -6.4 °C -9.2 °C 34097 hPa NNE 2.6 km/h 2.6 km/h 73 % 0 mm
02:00 -6.4 °C -9.1 °C 34097 hPa WNW 2.6 km/h 2.6 km/h 74 % 0 mm
02:10 -6.3 °C -8.9 °C 34097 hPa WSW 2.6 km/h 5.1 km/h 74 % 0 mm
02:20 -6.2 °C -8.8 °C 34097 hPa Calm   2.6 km/h 74 % 0 mm
02:30 -6.1 °C -8.7 °C 34097 hPa East 2.6 km/h 5.1 km/h 74 % 0 mm
02:40 -6 °C -8.7 °C 34097 hPa Calm   2.6 km/h 74 % 0 mm
02:50 -5.7 °C -8.4 °C 34130.9 hPa North 2.6 km/h 7.7 km/h 74 % 0 mm
03:00 -5.8 °C -8.7 °C 34130.9 hPa NE 5.1 km/h 7.7 km/h 73 % 0 mm
03:10 -5.8 °C -8.7 °C 34130.9 hPa NE 2.6 km/h 7.7 km/h 73 % 0 mm
03:20 -5.7 °C -8.7 °C 34130.9 hPa NE 2.6 km/h 5.1 km/h 72 % 0 mm
03:30 -5.7 °C -8.7 °C 34130.9 hPa NE 5.1 km/h 7.7 km/h 71 % 0 mm
03:40 -5.6 °C -8.7 °C 34130.9 hPa NE 5.1 km/h 7.7 km/h 71 % 0 mm
03:50 -5.4 °C -8.6 °C 34130.9 hPa NE 2.6 km/h 10.3 km/h 70 % 0 mm
04:00 -5.3 °C -8.5 °C 34130.9 hPa NE 2.6 km/h 10.3 km/h 70 % 0 mm
04:10 -5.1 °C -8.3 °C 34130.9 hPa NE 5.1 km/h 5.1 km/h 70 % 0 mm
04:20 -4.7 °C -8.1 °C 34130.9 hPa NE 2.6 km/h 5.1 km/h 69 % 0 mm
04:30 -4.4 °C -7.9 °C 34130.9 hPa NNE 2.6 km/h 7.7 km/h 68 % 0 mm
04:40 -4.4 °C -7.8 °C 34130.9 hPa ENE 5.1 km/h 7.7 km/h 69 % 0 mm
04:50 -4.2 °C -7.7 °C 34130.9 hPa East 7.7 km/h 7.7 km/h 68 % 0 mm
05:00 -3.8 °C -7.4 °C 34130.9 hPa ESE 5.1 km/h 10.3 km/h 67 % 0 mm
05:10 -3.3 °C -7.3 °C 34130.9 hPa SSE 5.1 km/h 7.7 km/h 65 % 0 mm
05:20 -3.2 °C -7.3 °C 34130.9 hPa SSE 7.7 km/h 10.3 km/h 64 % 0 mm
05:30 -3.4 °C -7.4 °C 34130.9 hPa ESE 7.7 km/h 10.3 km/h 64 % 0 mm
05:40 -3.2 °C -7.4 °C 34097 hPa East 5.1 km/h 15.6 km/h 63 % 0 mm
05:50 -3.1 °C -7.2 °C 34097 hPa East 7.7 km/h 12.9 km/h 64 % 0 mm
09:00 -2.2 °C -7.7 °C 34063.2 hPa ESE 18.2 km/h 18.2 km/h 55 % 0 mm
09:10 -2.2 °C -7.9 °C 34063.2 hPa ESE 23.3 km/h 33.6 km/h 54 % 0 mm
09:20 -2.2 °C -7.7 °C 34063.2 hPa ESE 18.2 km/h 20.8 km/h 55 % 0 mm
09:30 -2 °C -7.8 °C 34063.2 hPa East 7.7 km/h 20.8 km/h 53 % 0 mm
09:40 -1.8 °C -7.8 °C 34063.2 hPa SE 15.6 km/h 15.6 km/h 52 % 0 mm
09:50 -1.9 °C -7.9 °C 34063.2 hPa SE 12.9 km/h 28.5 km/h 52 % 0 mm
10:00 -2.2 °C -8 °C 34063.2 hPa ESE 15.6 km/h 20.8 km/h 53 % 0 mm
10:10 -2.1 °C -7.9 °C 34029.3 hPa ESE 12.9 km/h 18.2 km/h 53 % 0 mm
10:20 -1.8 °C -7.6 °C 34063.2 hPa SE 5.1 km/h 23.3 km/h 53 % 0 mm
10:30 -1.7 °C -7.4 °C 34063.2 hPa SE 5.1 km/h 18.2 km/h 54 % 0 mm
10:40 -1.7 °C -7.7 °C 34063.2 hPa SE 7.7 km/h 15.6 km/h 52 % 0 mm
10:50 -2 °C -7.8 °C 34063.2 hPa SSE 5.1 km/h 15.6 km/h 53 % 0 mm
10:52 -2.8 °C -7.1 °C 34097 hPa ENE 15.3 km/h 15.3 km/h 63 % 0 mm
10:57 -2.9 °C -7.3 °C 34097 hPa ESE 9.3 km/h 9.3 km/h 62 % 0 mm
11:00 -1.3 °C -7.7 °C 34063.2 hPa South 5.1 km/h 20.8 km/h 50 % 0 mm
11:02 -2.8 °C -7.4 °C 34097 hPa ENE 17.9 km/h 17.9 km/h 61 % 0 mm
11:07 -2.8 °C -7.3 °C 34097 hPa ENE 11.9 km/h 11.9 km/h 61 % 0 mm
11:10 -1.5 °C -8.1 °C 33992.1 hPa SSW 7.7 km/h 10.3 km/h 49 % 0 mm
11:12 -2.7 °C -7.3 °C 34097 hPa NNE 15.6 km/h 15.6 km/h 61 % 0 mm
11:17 -2.6 °C -7.4 °C 34097 hPa East 15 km/h 15 km/h 59 % 0 mm
11:20 -1.5 °C -8.1 °C 33992.1 hPa South 15.6 km/h 15.6 km/h 49 % 0 mm
11:22 -2.2 °C -7.1 °C 34097 hPa ENE 17.9 km/h 17.9 km/h 59 % 0 mm
11:27 -2.5 °C -7.5 °C 34097 hPa ESE 17.9 km/h 17.9 km/h 58 % 0 mm
11:30 -1.2 °C -7.8 °C 33992.1 hPa SSW 7.7 km/h 15.6 km/h 49 % 0 mm
11:32 -2.3 °C -7.3 °C 34097 hPa East 16.6 km/h 16.6 km/h 58 % 0 mm
11:37 -2.4 °C -7.4 °C 34097 hPa East 17.9 km/h 17.9 km/h 58 % 0 mm
11:40 -1 °C -7.9 °C 33992.1 hPa SSW 5.1 km/h 12.9 km/h 47 % 0 mm
11:42 -2.7 °C -7.7 °C 34063.2 hPa East 20.9 km/h 20.9 km/h 58 % 0 mm
11:47 -2.5 °C -7.3 °C 34063.2 hPa ESE 20.9 km/h 20.9 km/h 59 % 0 mm
11:52 -2.4 °C -7.3 °C 34063.2 hPa ESE 23.8 km/h 23.8 km/h 59 % 0 mm
11:57 -2.5 °C -7.3 °C 34097 hPa ESE 26.9 km/h 26.9 km/h 59 % 0 mm
12:02 -2.4 °C -7.3 °C 34097 hPa SSE 32.8 km/h 32.8 km/h 59 % 0 mm
12:07 -2.3 °C -7.3 °C 34097 hPa SE 20.9 km/h 20.9 km/h 58 % 0 mm
12:12 -1.9 °C -7 °C 34063.2 hPa East 19.6 km/h 19.6 km/h 58 % 0 mm
12:17 -2.1 °C -7.1 °C 34063.2 hPa East 26.9 km/h 26.9 km/h 58 % 0 mm
12:20 -1.9 °C -7 °C 34063.2 hPa East 15 km/h 15.3 km/h 58 % 0 mm
12:25 -1.8 °C -7.2 °C 34063.2 hPa ESE 27.7 km/h 27.7 km/h 56 % 0 mm
12:30 -2.2 °C -7.3 °C 34063.2 hPa ESE 29.8 km/h 29.8 km/h 57 % 0 mm
12:35 -1.8 °C -7 °C 34063.2 hPa ESE 22 km/h 22 km/h 57 % 0 mm
12:40 -2 °C -7.3 °C 34063.2 hPa East 32.8 km/h 32.8 km/h 56 % 0 mm
12:45 -2.2 °C -7.6 °C 34063.2 hPa East 23.8 km/h 23.8 km/h 56 % 0 mm
12:50 -2.2 °C -7.6 °C 34063.2 hPa ENE 26.9 km/h 26.9 km/h 56 % 0 mm
12:55 -2.2 °C -7.7 °C 34063.2 hPa East 29.8 km/h 29.8 km/h 55 % 0 mm
13:00 -2.1 °C -7.6 °C 34063.2 hPa ESE 29.8 km/h 29.8 km/h 55 % 0 mm
13:05 -2.2 °C -7.8 °C 34063.2 hPa East 29.8 km/h 29.8 km/h 54 % 0 mm
13:10 -1.8 °C -7.3 °C 34063.2 hPa ESE 15.3 km/h 15.3 km/h 55 % 0 mm
13:15 -2 °C -7.7 °C 34063.2 hPa NE 26.9 km/h 26.9 km/h 54 % 0 mm
13:20 -2 °C -7.7 °C 34063.2 hPa East 29.5 km/h 29.5 km/h 54 % 0 mm
13:25 -1.9 °C -7.6 °C 34063.2 hPa East 25.1 km/h 25.1 km/h 54 % 0 mm
13:30 -2.1 °C -7.7 °C 34063.2 hPa ENE 32.8 km/h 32.8 km/h 54 % 0 mm
13:35 -2.2 °C -7.9 °C 34063.2 hPa ENE 29.8 km/h 29.8 km/h 54 % 0 mm
13:40 -2.2 °C -7.7 °C 34063.2 hPa ESE 26.9 km/h 26.9 km/h 55 % 0 mm
13:45 -2.3 °C -7.8 °C 34063.2 hPa ESE 32.8 km/h 32.8 km/h 55 % 0 mm
16:43 -1.1 °C -7.9 °C 33992.1 hPa SW 20.9 km/h 20.9 km/h 48 % 0 mm
16:48 -1.2 °C -7.9 °C 33992.1 hPa South 11.9 km/h 11.9 km/h 48 % 0 mm
16:53 -1.3 °C -8.1 °C 33992.1 hPa SW 17.9 km/h 17.9 km/h 48 % 0 mm
16:58 -1.2 °C -8 °C 33992.1 hPa West 15 km/h 15 km/h 48 % 0 mm
17:03 -1.2 °C -7.9 °C 33992.1 hPa SW 9.3 km/h 9.3 km/h 48 % 0 mm
17:08 -1.1 °C -7.9 °C 33992.1 hPa SSW 6.3 km/h 6.3 km/h 48 % 0 mm
17:13 -1.2 °C -8 °C 33992.1 hPa SW 19.2 km/h 19.2 km/h 48 % 0 mm
17:18 -1.7 °C -8.1 °C 33992.1 hPa SW 20.9 km/h 20.9 km/h 50 % 0 mm
17:23 -1.7 °C -8.1 °C 33992.1 hPa West 19.2 km/h 19.2 km/h 50 % 0 mm
17:28 -1.6 °C -8.2 °C 33992.1 hPa SW 26.9 km/h 26.9 km/h 49 % 0 mm
17:33 -1.6 °C -8.2 °C 33992.1 hPa SW 20.9 km/h 20.9 km/h 49 % 0 mm
17:34 -1.6 °C -8.1 °C 33992.1 hPa WSW 15 km/h 15 km/h 49 % 0 mm
17:39 -1.7 °C -8.1 °C 33992.1 hPa West 20.9 km/h 20.9 km/h 50 % 0 mm
17:44 -1.9 °C -8.1 °C 33992.1 hPa WSW 15 km/h 15.6 km/h 51 % 0 mm
17:49 -1.6 °C -8 °C 33992.1 hPa SW 29.8 km/h 29.8 km/h 50 % 0 mm
17:54 -1.6 °C -8 °C 33992.1 hPa South 15 km/h 15 km/h 50 % 0 mm
17:59 -1.3 °C -7.9 °C 33958.2 hPa SE 9 km/h 9 km/h 49 % 0 mm
18:04 -1.4 °C -8 °C 33958.2 hPa SSW 17.9 km/h 17.9 km/h 49 % 0 mm
18:09 -1.5 °C -8.1 °C 33958.2 hPa SW 11.9 km/h 11.9 km/h 49 % 0 mm
18:14 -1.8 °C -8.2 °C 33958.2 hPa SW 11.1 km/h 11.1 km/h 50 % 0 mm
18:19 -2 °C -8.3 °C 33958.2 hPa SW 6 km/h 6 km/h 50 % 0 mm
18:24 -2.1 °C -8.4 °C 33958.2 hPa South 11.9 km/h 11.9 km/h 50 % 0 mm
18:29 -2.1 °C -8.4 °C 33958.2 hPa SW 9 km/h 9 km/h 50 % 0 mm
18:34 -2.2 °C -8.3 °C 33958.2 hPa SW 9 km/h 9 km/h 51 % 0 mm
18:39 -2.3 °C -8.4 °C 33958.2 hPa SW 9 km/h 9 km/h 51 % 0 mm
18:44 -2.3 °C -8.5 °C 33958.2 hPa South 6 km/h 6 km/h 51 % 0 mm
18:49 -2.5 °C -8.7 °C 33958.2 hPa SW 17.9 km/h 17.9 km/h 51 % 0 mm
18:54 -2.7 °C -8.6 °C 33958.2 hPa SSW 12.2 km/h 12.2 km/h 52 % 0 mm
18:59 -2.7 °C -8.6 °C 33958.2 hPa WSW 9 km/h 9 km/h 52 % 0 mm
19:04 -2.6 °C -8.5 °C 33958.2 hPa SSW 22 km/h 22 km/h 52 % 0 mm
19:09 -2.3 °C -8.2 °C 33958.2 hPa South 15 km/h 15 km/h 53 % 0 mm
19:14 -2.4 °C -8.2 °C 33958.2 hPa WSW 20.9 km/h 20.9 km/h 53 % 0 mm
19:19 -2.4 °C -8.2 °C 33958.2 hPa WSW 9 km/h 12.7 km/h 53 % 0 mm
19:20 -4.8 °C -7.6 °C 33958.2 hPa Calm   2.6 km/h 73 % 0 mm
19:24 -2.5 °C -8.3 °C 33958.2 hPa SW 10.3 km/h 10.3 km/h 53 % 0 mm
19:29 -2.5 °C -8.1 °C 33924.3 hPa SW 17.9 km/h 17.9 km/h 54 % 0 mm
19:30 -4.9 °C -7.6 °C 33958.2 hPa SW 5.1 km/h 5.1 km/h 74 % 0 mm
19:34 -2.4 °C -8.1 °C 33924.3 hPa WSW 15 km/h 15 km/h 54 % 0 mm
19:39 -2.6 °C -8.2 °C 33924.3 hPa WSW 23.8 km/h 23.8 km/h 54 % 0 mm
19:40 -4.9 °C -7.6 °C 33992.1 hPa Calm   5.1 km/h 74 % 0 mm
19:44 -2.7 °C -8.3 °C 33924.3 hPa SW 15 km/h 15 km/h 54 % 0 mm
19:49 -2.7 °C -8.3 °C 33924.3 hPa SW 11.9 km/h 11.9 km/h 54 % 0 mm
19:50 -4.9 °C -7.6 °C 33992.1 hPa Calm   2.6 km/h 74 % 0 mm
19:54 -2.7 °C -8.3 °C 33924.3 hPa SW 9.3 km/h 9.3 km/h 54 % 0 mm
19:59 -2.7 °C -8.2 °C 33924.3 hPa WNW 9.3 km/h 9.3 km/h 55 % 0 mm
20:00 -4.9 °C -7.6 °C 33992.1 hPa NE 2.6 km/h 2.6 km/h 74 % 0 mm
20:04 -2.8 °C -8.2 °C 33924.3 hPa SW 11.9 km/h 11.9 km/h 55 % 0 mm
20:09 -2.9 °C -8.2 °C 33924.3 hPa SW 15 km/h 15 km/h 56 % 0 mm
20:10 -4.9 °C -7.6 °C 33958.2 hPa NNE 5.1 km/h 7.7 km/h 74 % 0 mm
20:14 -2.9 °C -8.1 °C 33924.3 hPa SSW 11.9 km/h 11.9 km/h 57 % 0 mm
20:19 -3 °C -8.1 °C 33924.3 hPa WSW 17.9 km/h 17.9 km/h 57 % 0 mm
20:20 -5 °C -7.7 °C 33992.1 hPa Calm   5.1 km/h 74 % 0 mm
20:24 -3.1 °C -8 °C 33924.3 hPa SW 14 km/h 14 km/h 58 % 0 mm
20:29 -3.1 °C -8.1 °C 33890.5 hPa SW 11.9 km/h 11.9 km/h 58 % 0 mm
20:30 -5 °C -7.6 °C 33992.1 hPa NE 2.6 km/h 2.6 km/h 75 % 0 mm
20:34 -3.1 °C -8.1 °C 33890.5 hPa SW 9 km/h 9 km/h 58 % 0 mm
20:39 -3.1 °C -7.9 °C 33890.5 hPa WSW 9 km/h 9 km/h 59 % 0 mm
20:40 -5 °C -7.4 °C 33958.2 hPa NE 2.6 km/h 2.6 km/h 76 % 0 mm
20:44 -3.1 °C -7.9 °C 33924.3 hPa East 6 km/h 6 km/h 59 % 0 mm
20:49 -3.2 °C -7.9 °C 33924.3 hPa WSW 15 km/h 15 km/h 60 % 0 mm
20:50 -5.1 °C -7.4 °C 33992.1 hPa ENE 2.6 km/h 5.1 km/h 77 % 0 mm
20:54 -3.3 °C -7.8 °C 33924.3 hPa WSW 9 km/h 9 km/h 61 % 0 mm
20:59 -3.4 °C -7.9 °C 33924.3 hPa SW 9 km/h 9 km/h 61 % 0 mm
21:00 -5.1 °C -7.3 °C 33992.1 hPa NE 5.1 km/h 5.1 km/h 78 % 0 mm
21:04 -3.4 °C -7.8 °C 33924.3 hPa SSW 6 km/h 6 km/h 62 % 0 mm
21:09 -3.6 °C -7.9 °C 33924.3 hPa SSW 11.9 km/h 11.9 km/h 62 % 0 mm
21:10 -5.2 °C -7.4 °C 33992.1 hPa NNE 5.1 km/h 7.7 km/h 78 % 0 mm
21:14 -3.6 °C -7.9 °C 33924.3 hPa SW 9.3 km/h 9.3 km/h 62 % 0 mm
21:19 -3.7 °C -7.9 °C 33924.3 hPa West 6 km/h 6 km/h 63 % 0 mm
21:20 -5.2 °C -7.4 °C 33992.1 hPa NNE 2.6 km/h 7.7 km/h 78 % 0 mm
21:24 -3.7 °C -7.9 °C 33924.3 hPa WSW 6.3 km/h 6.3 km/h 63 % 0 mm
21:29 -3.7 °C -7.9 °C 33924.3 hPa SW 6 km/h 6 km/h 63 % 0 mm
21:30 -5.2 °C -7.4 °C 33992.1 hPa NE 5.1 km/h 10.3 km/h 78 % 0 mm
21:34 -3.8 °C -7.8 °C 33924.3 hPa SW 6 km/h 6 km/h 64 % 0 mm
21:39 -3.8 °C -7.9 °C 33924.3 hPa SSW 9 km/h 9 km/h 64 % 0 mm
21:40 -5.2 °C -7.4 °C 33992.1 hPa NE 2.6 km/h 2.6 km/h 78 % 0 mm
21:44 -3.9 °C -7.8 °C 33890.5 hPa SW 9 km/h 9 km/h 65 % 0 mm
21:49 -4 °C -7.9 °C 33890.5 hPa SW 9 km/h 9 km/h 65 % 0 mm
21:50 -5.2 °C -7.4 °C 33992.1 hPa Calm   5.1 km/h 78 % 0 mm
21:54 -4.1 °C -7.9 °C 33890.5 hPa West 6 km/h 6 km/h 65 % 0 mm
21:59 -4.1 °C -7.8 °C 33924.3 hPa WSW 6 km/h 6 km/h 66 % 0 mm
22:00 -5.2 °C -7.4 °C 33992.1 hPa Calm   5.1 km/h 78 % 0 mm
22:04 -4.1 °C -7.8 °C 33924.3 hPa West 7.6 km/h 7.6 km/h 66 % 0 mm
22:09 -4.1 °C -7.9 °C 33924.3 hPa Calm     66 % 0 mm
22:10 -5.2 °C -7.3 °C 33992.1 hPa NNW 5.1 km/h 7.7 km/h 79 % 0 mm
22:14 -4.1 °C -7.9 °C 33924.3 hPa West 4.2 km/h   66 % 0 mm
22:19 -4.1 °C -7.9 °C 33924.3 hPa West 6 km/h 6 km/h 66 % 0 mm
22:20 -5.2 °C -7.3 °C 33992.1 hPa Calm     79 % 0 mm
22:24 -4.1 °C -7.7 °C 33924.3 hPa SW 6 km/h 6 km/h 67 % 0 mm
22:29 -4.2 °C -7.8 °C 33924.3 hPa WSW 3.1 km/h   67 % 0 mm
22:30 -5.3 °C -7.6 °C 33992.1 hPa NE 12.9 km/h 12.9 km/h 78 % 0 mm
22:34 -4.2 °C -7.8 °C 33924.3 hPa West 6 km/h 6 km/h 67 % 0 mm
22:39 -4.2 °C -7.8 °C 33924.3 hPa WSW 6 km/h   67 % 0 mm
22:40 -5.6 °C -7.9 °C 33992.1 hPa East 12.9 km/h 15.6 km/h 77 % 0 mm
22:44 -4.2 °C -7.7 °C 33924.3 hPa Calm     68 % 0 mm
22:49 -4.3 °C -7.8 °C 33924.3 hPa WSW 6 km/h 6 km/h 68 % 0 mm
22:50 -5.6 °C -8.1 °C 33992.1 hPa East 18.2 km/h 20.8 km/h 76 % 0 mm
22:54 -4.3 °C -7.8 °C 33924.3 hPa WSW 3.1 km/h   68 % 0 mm
22:59 -4.3 °C -7.8 °C 33924.3 hPa SW 3.1 km/h   68 % 0 mm
23:00 -5.7 °C -8.2 °C 33992.1 hPa East 7.7 km/h 15.6 km/h 75 % 0 mm
23:04 -4.4 °C -7.9 °C 33924.3 hPa Calm     68 % 0 mm
23:09 -4.5 °C -7.7 °C 33924.3 hPa SW 4.2 km/h 4.2 km/h 70 % 0 mm
23:10 -5.7 °C -8.2 °C 33992.1 hPa East 12.9 km/h 18.2 km/h 75 % 0 mm
23:14 -4.6 °C -7.8 °C 33958.2 hPa SW 6 km/h 6 km/h 70 % 0 mm
23:19 -4.7 °C -7.7 °C 33958.2 hPa Calm     71 % 0 mm
23:20 -5.8 °C -8.3 °C 33992.1 hPa East 7.7 km/h 12.9 km/h 75 % 0 mm
23:24 -4.7 °C -7.8 °C 33958.2 hPa Calm     71 % 0 mm
23:29 -4.7 °C -7.8 °C 33958.2 hPa SW 3.1 km/h   71 % 0 mm
23:30 -5.9 °C -8.4 °C 33992.1 hPa ENE 5.1 km/h 10.3 km/h 75 % 0 mm
23:34 -4.8 °C -7.9 °C 33958.2 hPa Calm     71 % 0 mm
23:39 -4.8 °C -7.7 °C 33958.2 hPa SW 3.7 km/h 3.7 km/h 72 % 0 mm
23:40 -6 °C -8.6 °C 33992.1 hPa ENE 5.1 km/h 10.3 km/h 75 % 0 mm
23:44 -4.8 °C -7.7 °C 33958.2 hPa Calm     72 % 0 mm
23:49 -4.8 °C -7.7 °C 33958.2 hPa SW 3.1 km/h 3.1 km/h 72 % 0 mm
23:50 -6.1 °C -8.6 °C 33992.1 hPa NE 5.1 km/h 10.3 km/h 75 % 0 mm
23:54 -4.8 °C -7.7 °C 33958.2 hPa SW 3.1 km/h 3.7 km/h 72 % 0 mm
23:59 -4.8 °C -7.6 °C 33958.2 hPa WSW 3.1 km/h 3.1 km/h 73 % 0 mm
Meteo Sesrovires
Elogis d' Weather Underground - 1.5 mb

Guio original per  Jim McMurry - jmcmurry@mwt.net Adaptat per a la plantilla per  Wim van der Kuil - Leuven-Template.eu

Trobareu la nostra informacio del temps tambe a:

Weather Underground

AWEKAS